sensor_id;sensor_type;location;lat;lon;timestamp;P1;durP1;ratioP1;P2;durP2;ratioP2
54599;SDS011;40500;51.084;16.958;2022-07-23T00:01:00;9.10;;;6.60;;
54599;SDS011;40500;51.084;16.958;2022-07-23T00:03:28;8.00;;;7.20;;
54599;SDS011;40500;51.084;16.958;2022-07-23T00:05:55;7.20;;;6.50;;
54599;SDS011;40500;51.084;16.958;2022-07-23T00:08:23;8.60;;;7.10;;
54599;SDS011;40500;51.084;16.958;2022-07-23T00:10:51;11.00;;;7.60;;
54599;SDS011;40500;51.084;16.958;2022-07-23T00:13:18;9.10;;;7.20;;
54599;SDS011;40500;51.084;16.958;2022-07-23T00:15:46;10.00;;;7.80;;
54599;SDS011;40500;51.084;16.958;2022-07-23T00:18:13;15.10;;;6.60;;
54599;SDS011;40500;51.084;16.958;2022-07-23T00:20:41;7.90;;;6.70;;
54599;SDS011;40500;51.084;16.958;2022-07-23T00:23:11;8.10;;;7.20;;
54599;SDS011;40500;51.084;16.958;2022-07-23T00:25:39;11.20;;;7.10;;
54599;SDS011;40500;51.084;16.958;2022-07-23T00:28:06;11.60;;;7.40;;
54599;SDS011;40500;51.084;16.958;2022-07-23T00:30:34;9.30;;;7.10;;
54599;SDS011;40500;51.084;16.958;2022-07-23T00:33:03;15.60;;;7.20;;
54599;SDS011;40500;51.084;16.958;2022-07-23T00:35:34;11.40;;;7.80;;
54599;SDS011;40500;51.084;16.958;2022-07-23T00:38:04;11.80;;;7.30;;
54599;SDS011;40500;51.084;16.958;2022-07-23T00:40:32;10.70;;;7.40;;
54599;SDS011;40500;51.084;16.958;2022-07-23T00:43:01;10.20;;;7.80;;
54599;SDS011;40500;51.084;16.958;2022-07-23T00:45:29;14.00;;;7.60;;
54599;SDS011;40500;51.084;16.958;2022-07-23T00:47:57;7.50;;;6.80;;
54599;SDS011;40500;51.084;16.958;2022-07-23T00:50:26;7.90;;;7.00;;
54599;SDS011;40500;51.084;16.958;2022-07-23T00:52:54;8.40;;;6.80;;
54599;SDS011;40500;51.084;16.958;2022-07-23T00:55:22;7.40;;;6.70;;
54599;SDS011;40500;51.084;16.958;2022-07-23T00:57:50;9.00;;;6.40;;
54599;SDS011;40500;51.084;16.958;2022-07-23T01:00:19;10.10;;;7.10;;
54599;SDS011;40500;51.084;16.958;2022-07-23T01:02:48;8.80;;;7.10;;
54599;SDS011;40500;51.084;16.958;2022-07-23T01:05:16;10.30;;;7.40;;
54599;SDS011;40500;51.084;16.958;2022-07-23T01:07:48;10.10;;;7.10;;
54599;SDS011;40500;51.084;16.958;2022-07-23T01:10:22;8.90;;;7.10;;
54599;SDS011;40500;51.084;16.958;2022-07-23T01:12:59;9.40;;;7.30;;
54599;SDS011;40500;51.084;16.958;2022-07-23T01:15:29;12.40;;;7.60;;
54599;SDS011;40500;51.084;16.958;2022-07-23T01:17:57;8.40;;;7.50;;
54599;SDS011;40500;51.084;16.958;2022-07-23T01:20:25;8.80;;;7.90;;
54599;SDS011;40500;51.084;16.958;2022-07-23T01:22:53;10.60;;;7.60;;
54599;SDS011;40500;51.084;16.958;2022-07-23T01:25:21;9.10;;;8.00;;
54599;SDS011;40500;51.084;16.958;2022-07-23T01:27:49;10.10;;;7.60;;
54599;SDS011;40500;51.084;16.958;2022-07-23T01:30:17;10.20;;;8.50;;
54599;SDS011;40500;51.084;16.958;2022-07-23T01:32:45;9.40;;;8.50;;
54599;SDS011;40500;51.084;16.958;2022-07-23T01:35:13;9.80;;;7.80;;
54599;SDS011;40500;51.084;16.958;2022-07-23T01:37:40;8.60;;;7.60;;
54599;SDS011;40500;51.084;16.958;2022-07-23T01:40:08;9.10;;;7.90;;
54599;SDS011;40500;51.084;16.958;2022-07-23T01:42:36;8.50;;;7.60;;
54599;SDS011;40500;51.084;16.958;2022-07-23T01:45:09;9.80;;;7.70;;
54599;SDS011;40500;51.084;16.958;2022-07-23T01:47:37;10.50;;;7.60;;
54599;SDS011;40500;51.084;16.958;2022-07-23T01:50:06;9.40;;;7.60;;
54599;SDS011;40500;51.084;16.958;2022-07-23T01:52:34;8.90;;;7.20;;
54599;SDS011;40500;51.084;16.958;2022-07-23T01:55:02;8.00;;;7.20;;
54599;SDS011;40500;51.084;16.958;2022-07-23T01:57:32;9.50;;;7.10;;
54599;SDS011;40500;51.084;16.958;2022-07-23T01:59:59;12.70;;;7.60;;
54599;SDS011;40500;51.084;16.958;2022-07-23T02:02:27;8.10;;;6.70;;
54599;SDS011;40500;51.084;16.958;2022-07-23T02:04:55;8.20;;;7.20;;
54599;SDS011;40500;51.084;16.958;2022-07-23T02:07:22;10.40;;;8.10;;
54599;SDS011;40500;51.084;16.958;2022-07-23T02:09:50;11.60;;;8.30;;
54599;SDS011;40500;51.084;16.958;2022-07-23T02:12:17;11.00;;;8.20;;
54599;SDS011;40500;51.084;16.958;2022-07-23T02:14:45;11.60;;;8.00;;
54599;SDS011;40500;51.084;16.958;2022-07-23T02:17:13;11.20;;;8.80;;
54599;SDS011;40500;51.084;16.958;2022-07-23T02:19:41;9.00;;;8.10;;
54599;SDS011;40500;51.084;16.958;2022-07-23T02:22:09;9.90;;;8.20;;
54599;SDS011;40500;51.084;16.958;2022-07-23T02:24:36;10.10;;;8.70;;
54599;SDS011;40500;51.084;16.958;2022-07-23T02:27:04;11.50;;;8.60;;
54599;SDS011;40500;51.084;16.958;2022-07-23T02:29:32;11.20;;;8.40;;
54599;SDS011;40500;51.084;16.958;2022-07-23T02:31:59;10.40;;;8.60;;
54599;SDS011;40500;51.084;16.958;2022-07-23T02:34:27;10.40;;;8.40;;
54599;SDS011;40500;51.084;16.958;2022-07-23T02:36:55;13.10;;;8.20;;
54599;SDS011;40500;51.084;16.958;2022-07-23T02:39:22;9.80;;;7.70;;
54599;SDS011;40500;51.084;16.958;2022-07-23T02:41:50;13.90;;;9.80;;
54599;SDS011;40500;51.084;16.958;2022-07-23T02:44:18;11.40;;;9.60;;
54599;SDS011;40500;51.084;16.958;2022-07-23T02:46:46;13.10;;;9.40;;
54599;SDS011;40500;51.084;16.958;2022-07-23T02:49:14;9.50;;;8.50;;
54599;SDS011;40500;51.084;16.958;2022-07-23T02:51:41;9.10;;;8.10;;
54599;SDS011;40500;51.084;16.958;2022-07-23T02:54:09;17.80;;;9.00;;
54599;SDS011;40500;51.084;16.958;2022-07-23T02:56:37;12.10;;;8.70;;
54599;SDS011;40500;51.084;16.958;2022-07-23T02:59:04;10.60;;;7.90;;
54599;SDS011;40500;51.084;16.958;2022-07-23T03:01:32;11.00;;;9.40;;
54599;SDS011;40500;51.084;16.958;2022-07-23T03:04:01;15.20;;;8.80;;
54599;SDS011;40500;51.084;16.958;2022-07-23T03:06:28;14.00;;;9.00;;
54599;SDS011;40500;51.084;16.958;2022-07-23T03:08:56;9.80;;;8.60;;
54599;SDS011;40500;51.084;16.958;2022-07-23T03:11:24;11.40;;;9.30;;
54599;SDS011;40500;51.084;16.958;2022-07-23T03:13:52;10.40;;;9.20;;
54599;SDS011;40500;51.084;16.958;2022-07-23T03:16:20;11.60;;;8.10;;
54599;SDS011;40500;51.084;16.958;2022-07-23T03:18:48;10.20;;;7.70;;
54599;SDS011;40500;51.084;16.958;2022-07-23T03:21:15;9.10;;;7.80;;
54599;SDS011;40500;51.084;16.958;2022-07-23T03:23:43;10.40;;;8.50;;
54599;SDS011;40500;51.084;16.958;2022-07-23T03:26:10;15.10;;;8.40;;
54599;SDS011;40500;51.084;16.958;2022-07-23T03:28:38;11.80;;;8.00;;
54599;SDS011;40500;51.084;16.958;2022-07-23T03:31:06;11.80;;;7.80;;
54599;SDS011;40500;51.084;16.958;2022-07-23T03:33:33;9.10;;;8.00;;
54599;SDS011;40500;51.084;16.958;2022-07-23T03:36:01;9.40;;;8.40;;
54599;SDS011;40500;51.084;16.958;2022-07-23T03:38:30;11.60;;;8.00;;
54599;SDS011;40500;51.084;16.958;2022-07-23T03:40:58;9.60;;;7.50;;
54599;SDS011;40500;51.084;16.958;2022-07-23T03:43:28;9.30;;;7.70;;
54599;SDS011;40500;51.084;16.958;2022-07-23T03:45:56;10.60;;;8.50;;
54599;SDS011;40500;51.084;16.958;2022-07-23T03:48:24;13.60;;;9.30;;
54599;SDS011;40500;51.084;16.958;2022-07-23T03:50:52;10.60;;;8.70;;
54599;SDS011;40500;51.084;16.958;2022-07-23T03:53:19;12.30;;;8.70;;
54599;SDS011;40500;51.084;16.958;2022-07-23T03:55:47;9.70;;;7.80;;
54599;SDS011;40500;51.084;16.958;2022-07-23T03:58:15;11.10;;;8.00;;
54599;SDS011;40500;51.084;16.958;2022-07-23T04:00:42;14.30;;;7.60;;
54599;SDS011;40500;51.084;16.958;2022-07-23T04:03:13;10.50;;;8.10;;
54599;SDS011;40500;51.084;16.958;2022-07-23T04:05:40;10.70;;;7.60;;
54599;SDS011;40500;51.084;16.958;2022-07-23T04:08:08;10.30;;;7.90;;
54599;SDS011;40500;51.084;16.958;2022-07-23T04:10:36;9.60;;;8.10;;
54599;SDS011;40500;51.084;16.958;2022-07-23T04:13:04;13.30;;;8.80;;
54599;SDS011;40500;51.084;16.958;2022-07-23T04:15:31;14.10;;;9.30;;
54599;SDS011;40500;51.084;16.958;2022-07-23T04:17:59;10.60;;;8.80;;
54599;SDS011;40500;51.084;16.958;2022-07-23T04:20:28;12.90;;;8.20;;
54599;SDS011;40500;51.084;16.958;2022-07-23T04:22:56;10.40;;;8.20;;
54599;SDS011;40500;51.084;16.958;2022-07-23T04:25:24;9.70;;;8.20;;
54599;SDS011;40500;51.084;16.958;2022-07-23T04:27:51;10.30;;;7.70;;
54599;SDS011;40500;51.084;16.958;2022-07-23T04:30:19;11.40;;;8.60;;
54599;SDS011;40500;51.084;16.958;2022-07-23T04:32:47;11.10;;;8.70;;
54599;SDS011;40500;51.084;16.958;2022-07-23T04:35:14;14.00;;;8.60;;
54599;SDS011;40500;51.084;16.958;2022-07-23T04:37:42;10.40;;;8.70;;
54599;SDS011;40500;51.084;16.958;2022-07-23T04:40:11;11.40;;;8.70;;
54599;SDS011;40500;51.084;16.958;2022-07-23T04:42:39;12.00;;;8.70;;
54599;SDS011;40500;51.084;16.958;2022-07-23T04:45:08;10.20;;;8.90;;
54599;SDS011;40500;51.084;16.958;2022-07-23T04:47:39;9.10;;;7.30;;
54599;SDS011;40500;51.084;16.958;2022-07-23T04:50:07;10.20;;;8.20;;
54599;SDS011;40500;51.084;16.958;2022-07-23T04:52:35;15.20;;;7.50;;
54599;SDS011;40500;51.084;16.958;2022-07-23T04:55:04;10.90;;;7.80;;
54599;SDS011;40500;51.084;16.958;2022-07-23T04:57:33;9.00;;;7.50;;
54599;SDS011;40500;51.084;16.958;2022-07-23T05:00:00;10.30;;;8.10;;
54599;SDS011;40500;51.084;16.958;2022-07-23T05:02:28;8.90;;;7.60;;
54599;SDS011;40500;51.084;16.958;2022-07-23T05:04:56;10.40;;;7.60;;
54599;SDS011;40500;51.084;16.958;2022-07-23T05:07:23;10.60;;;7.90;;
54599;SDS011;40500;51.084;16.958;2022-07-23T05:09:51;9.00;;;6.80;;
54599;SDS011;40500;51.084;16.958;2022-07-23T05:12:19;8.70;;;7.20;;
54599;SDS011;40500;51.084;16.958;2022-07-23T05:14:47;14.80;;;6.80;;
54599;SDS011;40500;51.084;16.958;2022-07-23T05:17:14;9.60;;;6.80;;
54599;SDS011;40500;51.084;16.958;2022-07-23T05:19:42;9.70;;;6.60;;
54599;SDS011;40500;51.084;16.958;2022-07-23T05:22:09;7.70;;;6.50;;
54599;SDS011;40500;51.084;16.958;2022-07-23T05:24:37;7.00;;;6.30;;
54599;SDS011;40500;51.084;16.958;2022-07-23T05:27:04;8.20;;;6.50;;
54599;SDS011;40500;51.084;16.958;2022-07-23T05:29:33;11.90;;;6.30;;
54599;SDS011;40500;51.084;16.958;2022-07-23T05:32:00;7.00;;;6.10;;
54599;SDS011;40500;51.084;16.958;2022-07-23T05:34:28;8.00;;;6.00;;
54599;SDS011;40500;51.084;16.958;2022-07-23T05:36:56;9.00;;;6.40;;
54599;SDS011;40500;51.084;16.958;2022-07-23T05:39:24;8.90;;;6.40;;
54599;SDS011;40500;51.084;16.958;2022-07-23T05:41:51;8.50;;;5.80;;
54599;SDS011;40500;51.084;16.958;2022-07-23T05:44:19;7.50;;;6.00;;
54599;SDS011;40500;51.084;16.958;2022-07-23T05:46:47;6.40;;;5.80;;
54599;SDS011;40500;51.084;16.958;2022-07-23T05:49:14;11.80;;;6.10;;
54599;SDS011;40500;51.084;16.958;2022-07-23T05:51:42;7.60;;;5.70;;
54599;SDS011;40500;51.084;16.958;2022-07-23T05:54:12;9.60;;;6.10;;
54599;SDS011;40500;51.084;16.958;2022-07-23T05:56:40;7.00;;;6.10;;
54599;SDS011;40500;51.084;16.958;2022-07-23T05:59:07;8.80;;;6.10;;
54599;SDS011;40500;51.084;16.958;2022-07-23T06:01:35;7.10;;;5.90;;
54599;SDS011;40500;51.084;16.958;2022-07-23T06:04:03;8.00;;;6.70;;
54599;SDS011;40500;51.084;16.958;2022-07-23T06:06:33;7.30;;;5.80;;
54599;SDS011;40500;51.084;16.958;2022-07-23T06:09:01;7.20;;;6.40;;
54599;SDS011;40500;51.084;16.958;2022-07-23T06:11:29;8.90;;;6.00;;
54599;SDS011;40500;51.084;16.958;2022-07-23T06:13:57;10.70;;;6.10;;
54599;SDS011;40500;51.084;16.958;2022-07-23T06:16:25;7.00;;;6.30;;
54599;SDS011;40500;51.084;16.958;2022-07-23T06:18:52;6.90;;;5.90;;
54599;SDS011;40500;51.084;16.958;2022-07-23T06:21:20;9.10;;;5.80;;
54599;SDS011;40500;51.084;16.958;2022-07-23T06:24:07;8.80;;;6.20;;
54599;SDS011;40500;51.084;16.958;2022-07-23T06:26:35;9.60;;;6.20;;
54599;SDS011;40500;51.084;16.958;2022-07-23T06:29:02;8.60;;;6.60;;
54599;SDS011;40500;51.084;16.958;2022-07-23T06:31:31;6.40;;;5.80;;
54599;SDS011;40500;51.084;16.958;2022-07-23T06:33:58;7.50;;;6.30;;
54599;SDS011;40500;51.084;16.958;2022-07-23T06:36:26;7.90;;;5.70;;
54599;SDS011;40500;51.084;16.958;2022-07-23T06:38:54;10.90;;;6.10;;
54599;SDS011;40500;51.084;16.958;2022-07-23T06:41:21;9.00;;;5.50;;
54599;SDS011;40500;51.084;16.958;2022-07-23T06:43:49;8.90;;;5.90;;
54599;SDS011;40500;51.084;16.958;2022-07-23T06:46:17;10.10;;;6.30;;
54599;SDS011;40500;51.084;16.958;2022-07-23T06:48:45;8.20;;;6.00;;
54599;SDS011;40500;51.084;16.958;2022-07-23T06:51:13;8.90;;;6.40;;
54599;SDS011;40500;51.084;16.958;2022-07-23T06:53:40;7.90;;;6.50;;
54599;SDS011;40500;51.084;16.958;2022-07-23T06:56:08;7.30;;;6.20;;
54599;SDS011;40500;51.084;16.958;2022-07-23T06:58:36;11.80;;;6.10;;
54599;SDS011;40500;51.084;16.958;2022-07-23T07:01:04;9.40;;;6.20;;
54599;SDS011;40500;51.084;16.958;2022-07-23T07:03:31;7.60;;;5.90;;
54599;SDS011;40500;51.084;16.958;2022-07-23T07:05:59;8.20;;;6.50;;
54599;SDS011;40500;51.084;16.958;2022-07-23T07:08:26;11.00;;;6.60;;
54599;SDS011;40500;51.084;16.958;2022-07-23T07:10:54;9.20;;;6.40;;
54599;SDS011;40500;51.084;16.958;2022-07-23T07:13:22;7.60;;;6.30;;
54599;SDS011;40500;51.084;16.958;2022-07-23T07:15:50;7.90;;;6.00;;
54599;SDS011;40500;51.084;16.958;2022-07-23T07:18:17;6.60;;;5.60;;
54599;SDS011;40500;51.084;16.958;2022-07-23T07:20:45;9.10;;;5.90;;
54599;SDS011;40500;51.084;16.958;2022-07-23T07:23:12;8.70;;;6.40;;
54599;SDS011;40500;51.084;16.958;2022-07-23T07:25:42;7.80;;;6.20;;
54599;SDS011;40500;51.084;16.958;2022-07-23T07:28:09;7.60;;;6.40;;
54599;SDS011;40500;51.084;16.958;2022-07-23T07:30:37;7.70;;;6.20;;
54599;SDS011;40500;51.084;16.958;2022-07-23T07:33:05;8.60;;;6.30;;
54599;SDS011;40500;51.084;16.958;2022-07-23T07:35:32;7.70;;;6.30;;
54599;SDS011;40500;51.084;16.958;2022-07-23T07:38:00;6.20;;;5.40;;
54599;SDS011;40500;51.084;16.958;2022-07-23T07:40:28;8.60;;;6.30;;
54599;SDS011;40500;51.084;16.958;2022-07-23T07:43:00;9.20;;;6.60;;
54599;SDS011;40500;51.084;16.958;2022-07-23T07:45:29;7.60;;;6.60;;
54599;SDS011;40500;51.084;16.958;2022-07-23T07:47:57;12.60;;;7.10;;
54599;SDS011;40500;51.084;16.958;2022-07-23T07:50:25;9.70;;;6.50;;
54599;SDS011;40500;51.084;16.958;2022-07-23T07:52:53;7.60;;;6.80;;
54599;SDS011;40500;51.084;16.958;2022-07-23T07:55:20;11.60;;;6.10;;
54599;SDS011;40500;51.084;16.958;2022-07-23T07:57:48;7.20;;;6.10;;
54599;SDS011;40500;51.084;16.958;2022-07-23T08:00:16;7.80;;;6.80;;
54599;SDS011;40500;51.084;16.958;2022-07-23T08:02:46;7.90;;;5.90;;
54599;SDS011;40500;51.084;16.958;2022-07-23T08:05:18;10.00;;;6.70;;
54599;SDS011;40500;51.084;16.958;2022-07-23T08:07:53;8.30;;;6.70;;
54599;SDS011;40500;51.084;16.958;2022-07-23T08:10:21;7.10;;;6.40;;
54599;SDS011;40500;51.084;16.958;2022-07-23T08:12:49;8.20;;;7.40;;
54599;SDS011;40500;51.084;16.958;2022-07-23T08:15:19;9.30;;;6.90;;
54599;SDS011;40500;51.084;16.958;2022-07-23T08:17:48;8.90;;;6.70;;
54599;SDS011;40500;51.084;16.958;2022-07-23T08:20:17;12.80;;;7.20;;
54599;SDS011;40500;51.084;16.958;2022-07-23T08:22:47;7.40;;;6.60;;
54599;SDS011;40500;51.084;16.958;2022-07-23T08:25:17;10.30;;;7.10;;
54599;SDS011;40500;51.084;16.958;2022-07-23T08:27:48;7.80;;;6.80;;
54599;SDS011;40500;51.084;16.958;2022-07-23T08:30:16;7.60;;;6.80;;
54599;SDS011;40500;51.084;16.958;2022-07-23T08:32:51;9.70;;;7.50;;
54599;SDS011;40500;51.084;16.958;2022-07-23T08:35:25;7.90;;;6.60;;
54599;SDS011;40500;51.084;16.958;2022-07-23T08:37:55;10.60;;;6.80;;
54599;SDS011;40500;51.084;16.958;2022-07-23T08:40:23;8.40;;;6.90;;
54599;SDS011;40500;51.084;16.958;2022-07-23T08:42:53;8.40;;;7.60;;
54599;SDS011;40500;51.084;16.958;2022-07-23T08:45:22;7.70;;;6.70;;
54599;SDS011;40500;51.084;16.958;2022-07-23T08:47:51;13.10;;;6.60;;
54599;SDS011;40500;51.084;16.958;2022-07-23T08:50:20;10.60;;;6.60;;
54599;SDS011;40500;51.084;16.958;2022-07-23T08:52:50;8.70;;;7.00;;
54599;SDS011;40500;51.084;16.958;2022-07-23T08:55:20;9.20;;;7.00;;
54599;SDS011;40500;51.084;16.958;2022-07-23T08:57:50;8.40;;;6.70;;
54599;SDS011;40500;51.084;16.958;2022-07-23T09:00:19;7.70;;;6.70;;
54599;SDS011;40500;51.084;16.958;2022-07-23T09:02:48;8.80;;;6.60;;
54599;SDS011;40500;51.084;16.958;2022-07-23T09:05:17;9.40;;;6.90;;
54599;SDS011;40500;51.084;16.958;2022-07-23T09:08:05;11.10;;;6.40;;
54599;SDS011;40500;51.084;16.958;2022-07-23T09:10:47;17.40;;;7.80;;
54599;SDS011;40500;51.084;16.958;2022-07-23T09:13:34;14.50;;;7.00;;
54599;SDS011;40500;51.084;16.958;2022-07-23T09:18:34;7.70;;;6.30;;
54599;SDS011;40500;51.084;16.958;2022-07-23T09:21:08;7.70;;;6.50;;
54599;SDS011;40500;51.084;16.958;2022-07-23T09:23:45;7.30;;;6.10;;
54599;SDS011;40500;51.084;16.958;2022-07-23T09:26:18;9.00;;;6.30;;
54599;SDS011;40500;51.084;16.958;2022-07-23T09:28:52;8.60;;;5.70;;
54599;SDS011;40500;51.084;16.958;2022-07-23T09:31:24;7.00;;;5.90;;
54599;SDS011;40500;51.084;16.958;2022-07-23T09:34:05;17.70;;;6.20;;
54599;SDS011;40500;51.084;16.958;2022-07-23T09:36:34;8.50;;;5.70;;
54599;SDS011;40500;51.084;16.958;2022-07-23T09:39:03;6.70;;;6.00;;
54599;SDS011;40500;51.084;16.958;2022-07-23T09:41:39;9.60;;;6.20;;
54599;SDS011;40500;51.084;16.958;2022-07-23T09:44:10;7.50;;;5.80;;
54599;SDS011;40500;51.084;16.958;2022-07-23T09:46:40;8.40;;;6.30;;
54599;SDS011;40500;51.084;16.958;2022-07-23T09:49:16;10.20;;;5.90;;
54599;SDS011;40500;51.084;16.958;2022-07-23T09:51:46;11.60;;;6.40;;
54599;SDS011;40500;51.084;16.958;2022-07-23T09:57:07;15.60;;;6.20;;
54599;SDS011;40500;51.084;16.958;2022-07-23T09:59:40;14.60;;;5.90;;
54599;SDS011;40500;51.084;16.958;2022-07-23T10:02:09;11.40;;;6.40;;
54599;SDS011;40500;51.084;16.958;2022-07-23T10:04:38;9.10;;;6.80;;
54599;SDS011;40500;51.084;16.958;2022-07-23T10:07:06;7.90;;;7.10;;
54599;SDS011;40500;51.084;16.958;2022-07-23T10:09:37;9.80;;;6.30;;
54599;SDS011;40500;51.084;16.958;2022-07-23T10:12:08;11.30;;;6.10;;
54599;SDS011;40500;51.084;16.958;2022-07-23T10:14:42;6.10;;;5.40;;
54599;SDS011;40500;51.084;16.958;2022-07-23T10:17:11;9.70;;;6.00;;
54599;SDS011;40500;51.084;16.958;2022-07-23T10:19:39;7.20;;;5.60;;
54599;SDS011;40500;51.084;16.958;2022-07-23T10:22:08;6.90;;;5.40;;
54599;SDS011;40500;51.084;16.958;2022-07-23T10:24:43;8.30;;;6.20;;
54599;SDS011;40500;51.084;16.958;2022-07-23T10:30:36;8.50;;;5.80;;
54599;SDS011;40500;51.084;16.958;2022-07-23T10:33:20;8.90;;;7.80;;
54599;SDS011;40500;51.084;16.958;2022-07-23T10:35:58;13.10;;;7.00;;
54599;SDS011;40500;51.084;16.958;2022-07-23T10:38:35;12.50;;;8.00;;
54599;SDS011;40500;51.084;16.958;2022-07-23T10:41:09;14.70;;;7.40;;
54599;SDS011;40500;51.084;16.958;2022-07-23T10:43:40;11.10;;;7.60;;
54599;SDS011;40500;51.084;16.958;2022-07-23T10:46:24;10.20;;;7.90;;
54599;SDS011;40500;51.084;16.958;2022-07-23T10:54:52;10.00;;;6.90;;
54599;SDS011;40500;51.084;16.958;2022-07-23T10:57:21;14.30;;;7.40;;
54599;SDS011;40500;51.084;16.958;2022-07-23T11:02:43;10.50;;;7.10;;
54599;SDS011;40500;51.084;16.958;2022-07-23T11:05:12;8.50;;;6.50;;
54599;SDS011;40500;51.084;16.958;2022-07-23T11:10:44;11.20;;;6.60;;
54599;SDS011;40500;51.084;16.958;2022-07-23T11:13:26;10.70;;;7.20;;
54599;SDS011;40500;51.084;16.958;2022-07-23T11:16:07;10.30;;;7.10;;
54599;SDS011;40500;51.084;16.958;2022-07-23T11:21:46;10.60;;;7.50;;
54599;SDS011;40500;51.084;16.958;2022-07-23T11:24:18;9.00;;;7.40;;
54599;SDS011;40500;51.084;16.958;2022-07-23T11:26:52;11.10;;;7.90;;
54599;SDS011;40500;51.084;16.958;2022-07-23T11:29:40;9.00;;;7.90;;
54599;SDS011;40500;51.084;16.958;2022-07-23T11:32:22;9.80;;;8.10;;
54599;SDS011;40500;51.084;16.958;2022-07-23T11:34:59;9.90;;;7.70;;
54599;SDS011;40500;51.084;16.958;2022-07-23T11:37:29;9.00;;;7.50;;
54599;SDS011;40500;51.084;16.958;2022-07-23T11:40:03;16.80;;;8.10;;
54599;SDS011;40500;51.084;16.958;2022-07-23T11:42:34;18.60;;;8.20;;
54599;SDS011;40500;51.084;16.958;2022-07-23T11:45:05;15.00;;;7.90;;
54599;SDS011;40500;51.084;16.958;2022-07-23T11:47:34;11.20;;;10.00;;
54599;SDS011;40500;51.084;16.958;2022-07-23T11:50:03;11.50;;;9.80;;
54599;SDS011;40500;51.084;16.958;2022-07-23T11:52:33;11.20;;;9.20;;
54599;SDS011;40500;51.084;16.958;2022-07-23T11:55:02;11.30;;;8.50;;
54599;SDS011;40500;51.084;16.958;2022-07-23T11:57:31;12.60;;;9.00;;
54599;SDS011;40500;51.084;16.958;2022-07-23T12:00:02;10.00;;;8.90;;
54599;SDS011;40500;51.084;16.958;2022-07-23T12:02:32;13.80;;;8.80;;
54599;SDS011;40500;51.084;16.958;2022-07-23T12:05:00;15.30;;;10.40;;
54599;SDS011;40500;51.084;16.958;2022-07-23T12:07:29;15.70;;;10.00;;
54599;SDS011;40500;51.084;16.958;2022-07-23T12:09:58;11.10;;;8.60;;
54599;SDS011;40500;51.084;16.958;2022-07-23T12:12:27;9.70;;;8.20;;
54599;SDS011;40500;51.084;16.958;2022-07-23T12:15:03;9.70;;;8.40;;
54599;SDS011;40500;51.084;16.958;2022-07-23T12:17:33;9.10;;;8.20;;
54599;SDS011;40500;51.084;16.958;2022-07-23T12:20:03;10.50;;;8.00;;
54599;SDS011;40500;51.084;16.958;2022-07-23T12:22:34;10.30;;;7.90;;
54599;SDS011;40500;51.084;16.958;2022-07-23T12:25:04;10.90;;;8.10;;
54599;SDS011;40500;51.084;16.958;2022-07-23T12:27:34;14.50;;;9.30;;
54599;SDS011;40500;51.084;16.958;2022-07-23T12:30:15;9.70;;;8.50;;
54599;SDS011;40500;51.084;16.958;2022-07-23T12:32:45;9.80;;;8.20;;
54599;SDS011;40500;51.084;16.958;2022-07-23T12:35:14;9.70;;;8.60;;
54599;SDS011;40500;51.084;16.958;2022-07-23T12:37:43;10.70;;;9.20;;
54599;SDS011;40500;51.084;16.958;2022-07-23T12:40:25;9.10;;;7.70;;
54599;SDS011;40500;51.084;16.958;2022-07-23T12:42:55;7.90;;;7.20;;
54599;SDS011;40500;51.084;16.958;2022-07-23T12:45:24;10.20;;;7.50;;
54599;SDS011;40500;51.084;16.958;2022-07-23T12:48:03;8.60;;;7.70;;
54599;SDS011;40500;51.084;16.958;2022-07-23T12:50:40;8.90;;;8.00;;
54599;SDS011;40500;51.084;16.958;2022-07-23T12:53:12;10.10;;;7.60;;
54599;SDS011;40500;51.084;16.958;2022-07-23T12:55:50;8.40;;;7.50;;
54599;SDS011;40500;51.084;16.958;2022-07-23T12:58:43;10.40;;;7.60;;
54599;SDS011;40500;51.084;16.958;2022-07-23T13:01:23;10.40;;;7.70;;
54599;SDS011;40500;51.084;16.958;2022-07-23T13:03:56;9.00;;;7.90;;
54599;SDS011;40500;51.084;16.958;2022-07-23T13:06:26;13.20;;;7.60;;
54599;SDS011;40500;51.084;16.958;2022-07-23T13:08:55;8.80;;;7.90;;
54599;SDS011;40500;51.084;16.958;2022-07-23T13:11:23;10.20;;;7.10;;
54599;SDS011;40500;51.084;16.958;2022-07-23T13:13:51;9.90;;;7.70;;
54599;SDS011;40500;51.084;16.958;2022-07-23T13:16:19;10.00;;;6.70;;
54599;SDS011;40500;51.084;16.958;2022-07-23T13:18:47;10.00;;;7.20;;
54599;SDS011;40500;51.084;16.958;2022-07-23T13:21:15;9.00;;;6.90;;
54599;SDS011;40500;51.084;16.958;2022-07-23T13:23:43;7.60;;;6.80;;
54599;SDS011;40500;51.084;16.958;2022-07-23T13:26:11;10.20;;;7.10;;
54599;SDS011;40500;51.084;16.958;2022-07-23T13:28:39;10.20;;;6.90;;
54599;SDS011;40500;51.084;16.958;2022-07-23T13:31:06;9.00;;;6.50;;
54599;SDS011;40500;51.084;16.958;2022-07-23T13:33:35;9.50;;;7.20;;
54599;SDS011;40500;51.084;16.958;2022-07-23T13:36:03;6.30;;;5.70;;
54599;SDS011;40500;51.084;16.958;2022-07-23T13:38:32;10.50;;;6.70;;
54599;SDS011;40500;51.084;16.958;2022-07-23T13:41:00;8.40;;;6.80;;
54599;SDS011;40500;51.084;16.958;2022-07-23T13:43:29;9.40;;;6.30;;
54599;SDS011;40500;51.084;16.958;2022-07-23T13:46:02;9.20;;;6.70;;
54599;SDS011;40500;51.084;16.958;2022-07-23T13:48:30;7.10;;;6.40;;
54599;SDS011;40500;51.084;16.958;2022-07-23T13:50:58;9.30;;;6.10;;
54599;SDS011;40500;51.084;16.958;2022-07-23T13:53:26;9.00;;;6.40;;
54599;SDS011;40500;51.084;16.958;2022-07-23T13:55:54;7.70;;;6.80;;
54599;SDS011;40500;51.084;16.958;2022-07-23T13:58:23;8.30;;;6.80;;
54599;SDS011;40500;51.084;16.958;2022-07-23T14:00:52;13.70;;;7.20;;
54599;SDS011;40500;51.084;16.958;2022-07-23T14:03:20;8.40;;;7.20;;
54599;SDS011;40500;51.084;16.958;2022-07-23T14:05:49;8.00;;;7.10;;
54599;SDS011;40500;51.084;16.958;2022-07-23T14:08:18;12.60;;;6.80;;
54599;SDS011;40500;51.084;16.958;2022-07-23T14:10:48;7.70;;;6.60;;
54599;SDS011;40500;51.084;16.958;2022-07-23T14:13:16;11.60;;;7.10;;
54599;SDS011;40500;51.084;16.958;2022-07-23T14:15:47;7.50;;;6.10;;
54599;SDS011;40500;51.084;16.958;2022-07-23T14:18:16;9.90;;;7.30;;
54599;SDS011;40500;51.084;16.958;2022-07-23T14:20:43;8.70;;;6.40;;
54599;SDS011;40500;51.084;16.958;2022-07-23T14:23:11;9.30;;;7.00;;
54599;SDS011;40500;51.084;16.958;2022-07-23T14:25:40;8.30;;;7.20;;
54599;SDS011;40500;51.084;16.958;2022-07-23T14:28:08;7.50;;;6.60;;
54599;SDS011;40500;51.084;16.958;2022-07-23T14:30:38;8.80;;;6.80;;
54599;SDS011;40500;51.084;16.958;2022-07-23T14:33:05;10.20;;;6.90;;
54599;SDS011;40500;51.084;16.958;2022-07-23T14:35:33;8.40;;;6.80;;
54599;SDS011;40500;51.084;16.958;2022-07-23T14:38:00;9.10;;;6.70;;
54599;SDS011;40500;51.084;16.958;2022-07-23T14:40:28;8.90;;;7.20;;
54599;SDS011;40500;51.084;16.958;2022-07-23T14:42:55;10.50;;;7.70;;
54599;SDS011;40500;51.084;16.958;2022-07-23T14:45:23;10.40;;;6.90;;
54599;SDS011;40500;51.084;16.958;2022-07-23T14:47:51;7.70;;;6.40;;
54599;SDS011;40500;51.084;16.958;2022-07-23T14:50:20;7.20;;;6.40;;
54599;SDS011;40500;51.084;16.958;2022-07-23T14:52:48;8.80;;;7.00;;
54599;SDS011;40500;51.084;16.958;2022-07-23T14:55:16;7.80;;;6.70;;
54599;SDS011;40500;51.084;16.958;2022-07-23T14:57:45;8.00;;;7.20;;
54599;SDS011;40500;51.084;16.958;2022-07-23T15:00:14;9.80;;;7.30;;
54599;SDS011;40500;51.084;16.958;2022-07-23T15:02:42;10.70;;;6.30;;
54599;SDS011;40500;51.084;16.958;2022-07-23T15:05:14;8.20;;;6.80;;